Terminal Aerodrome Forecast
Issued by NWS

Home | Current Version | Previous Version | Text Only | Print | Product List | Glossary On
Versions: 1 2 3 4 5 6 7 8 9 10 11 12 13 14 15 16 17
000
FTUS43 KDVN 311700
TAFBRL
TAF
KBRL 311720Z 3118/0118 34020G27KT P6SM FEW050
     FM312200 35011G18KT P6SM SKC
     FM010100 36007KT P6SM SKC
     FM011500 05005KT P6SM SCT150=

USA.gov is the U.S. government's official web portal to all federal, state and local government web resources and services.